Thursday, April 2, 2015, 3:48 AM EDT

KTHV, York Airport

Location: Spring Grove, PA, United States Lat: 39.917
Local Time: 3:48 AM EDT ( 7:48 GMT) Lon: -76.883
Time Zone: US/Eastern Elev: 478 ft

Show me the last for .
Show Decoded

2015-04-02 02:53 METAR KTHV 020653Z AUTO 00000KT 10SM CLR M02/M05 A3021 RMK AO2 SLP235 T10221050
                 =
2015-04-02 01:53 METAR KTHV 020553Z AUTO 00000KT 10SM CLR M02/M04 A3022 RMK AO2 SLP239 T10221044
                 10083 21022 53005 =
2015-04-02 00:53 METAR KTHV 020453Z AUTO 00000KT 10SM CLR 02/M03 A3022 RMK AO2 SLP238 T00171028
                 401331056 =
2015-04-01 23:53 METAR KTHV 020353Z AUTO 00000KT 10SM CLR M01/M04 A3020 RMK AO2 SLP234 T10061039
                 =
2015-04-01 22:53 METAR KTHV 020253Z AUTO 00000KT 10SM CLR M01/M03 A3020 RMK AO2 SLP234 T10061033
                 51009 =
2015-04-01 21:53 METAR KTHV 020153Z AUTO 00000KT 10SM CLR 01/M03 A3020 RMK AO2 SLP231 T00111033 =
2015-04-01 20:53 METAR KTHV 020053Z AUTO 15003KT 10SM CLR 03/M03 A3020 RMK AO2 SLP231 T00331028 =
2015-04-01 19:53 METAR KTHV 012353Z AUTO 34004KT 10SM CLR 08/M03 A3018 RMK AO2 SLP225 T00831028
                 10133 20083 51015 =
2015-04-01 18:53 METAR KTHV 012253Z AUTO 33008KT 10SM CLR 11/M03 A3016 RMK AO2 SLP219 T01111028 =
2015-04-01 17:53 METAR KTHV 012153Z AUTO 32012G16KT 10SM SCT065 12/M03 A3015 RMK AO2 SLP215
                 T01221033 =
2015-04-01 16:53 METAR KTHV 012053Z AUTO 33009G18KT 10SM FEW065 13/M03 A3013 RMK AO2 SLP210
                 T01331028 55000 =
2015-04-01 15:53 METAR KTHV 011953Z AUTO 29009G18KT 10SM SCT065 OVC085 12/M03 A3013 RMK AO2
                 SLP209 T01171028 =
2015-04-01 14:53 METAR KTHV 011853Z AUTO 29009KT 10SM BKN065 BKN090 13/M03 A3013 RMK AO2 SLP207
                 T01331033 =
2015-04-01 13:53 METAR KTHV 011753Z AUTO 34012G16KT 300V360 10SM CLR 12/M05 A3014 RMK AO2 SLP209
                 T01171050 10122 21017 56002 =
2015-04-01 12:53 METAR KTHV 011653Z AUTO VRB06KT 10SM CLR 11/M04 A3013 RMK AO2 SLP209 T01061039 =
2015-04-01 11:53 METAR KTHV 011553Z AUTO 30003KT 10SM CLR 09/M02 A3014 RMK AO2 SLP211 T00891022 =
2015-04-01 10:53 METAR KTHV 011453Z AUTO 10SM BKN039 07/M02 A3014 RMK AO2 SLP212 T00671017 51024
                 =
2015-04-01 09:53 METAR KTHV 011353Z AUTO 32004KT 10SM CLR 06/M02 A3012 RMK AO2 SLP206 T00561022 =
2015-04-01 06:53 METAR KTHV 011053Z AUTO 27003KT 10SM CLR M05/M07 A3003 RMK AO2 SLP175 T10501067
                 =
2015-04-01 04:53 METAR KTHV 010853Z AUTO 30003KT 10SM CLR M04/M05 A2997 RMK AO2 SLP154 T10391050
                 53008 =
2015-04-01 03:53 METAR KTHV 010753Z AUTO 26003KT 10SM CLR M03/M04 A2993 RMK AO2 SLP141 T10331044
                 =

Support USWX by starting your Amazon purchase here.